San Francisco, California
Traffic Map
Current Weather Conditions
San Francisco, California
Overcast
Overcast
17°
Feels Like: 17°
Wind Chill: 17° Ceiling: 3100
Heat Index: 17° Visibility: 10mi
Dew Point: Wind: 13mph
Humidity: 60% Direction: 190° (S)
Pressure: 30in Gusts: 0mph
Raw Report DataKSFO 262056Z 19011KT 10SM OVC031 17/09 A3000 RMK AO2 SLP158 T01670089 51008
Traffic Incident Summary
Active as of:
Severity:
Category:
InformationThere was an issue retrieving the traffic information for this location. Please try a different location or try again shortly.
Advertisements
Track Severe Weather on mobile